CheckWX is a tool to help pilots better visualize weather data.  It is not intended as a substitute for an official pre-flight weather briefing.

21:51:37 UTC

KCIC METAR
Chico Municipal Airport
Chico, California, USA
Current

57 mins ago

KCIC 232055Z 31010G17KT 40SM SCT070 BKN120 25/04 A2978
Observed
May-23 @ 20:55 UTC
Wind
  • 310° at 10 KTS
  • Gusting to 17 KTS
Visibility
40 SM
Flight Rules
VFR
Cloud Levels
  • Scattered at 7,000' AGL
  • Broken at 12,000' AGL
Temperature
25°C / 77°F
Dewpoint
C / 39°F
Humidity
26%
Altimeter
29.78" Hg
Pressure
1008.42 hPa
Previous

2 hours ago

KCIC 231947Z VRB05KT 10SM BKN 070 24/04 A2979
Observed
May-23 @ 19:47 UTC
Wind
  • Variable at 5 KTS
Visibility
10 SM
Flight Rules
VFR
Cloud Levels
  • Broken at 7,000' AGL
Temperature
24°C / 75°F
Dewpoint
C / 39°F
Humidity
27%
Altimeter
29.79" Hg
Pressure
1008.82 hPa
Previous

3 hours ago

KCIC 231847Z VRB05KT 40SM SCT120 BKN180 23/03 A2979
Observed
May-23 @ 18:47 UTC
Wind
  • Variable at 5 KTS
Visibility
40 SM
Flight Rules
VFR
Cloud Levels
  • Scattered at 12,000' AGL
  • Broken at 18,000' AGL
Temperature
23°C / 73°F
Dewpoint
C / 37°F
Humidity
27%
Altimeter
29.79" Hg
Pressure
1008.82 hPa